createdAt,value
2023-01-23T00:01:12.850Z,0.00
2023-01-23T00:03:39.754Z,0.10
2023-01-23T00:06:10.648Z,0.00
2023-01-23T00:08:37.605Z,-0.10
2023-01-23T00:11:09.747Z,0.00
2023-01-23T00:13:36.938Z,-0.10
2023-01-23T00:16:05.461Z,-0.20
2023-01-23T00:18:32.455Z,-0.40
2023-01-23T00:20:59.393Z,-0.20
2023-01-23T00:23:26.077Z,-0.30
2023-01-23T00:25:52.723Z,-0.30
2023-01-23T00:28:19.527Z,-0.20
2023-01-23T00:30:46.297Z,-0.20
2023-01-23T00:33:12.957Z,-0.30
2023-01-23T00:35:39.658Z,-0.10
2023-01-23T00:38:06.366Z,-0.30
2023-01-23T00:40:33.946Z,-0.40
2023-01-23T00:43:00.658Z,-0.40
2023-01-23T00:45:27.415Z,-0.30
2023-01-23T00:47:54.060Z,-0.20
2023-01-23T00:50:20.952Z,-0.20
2023-01-23T00:52:47.776Z,-0.20
2023-01-23T00:55:14.497Z,-0.30
2023-01-23T00:57:41.104Z,-0.40
2023-01-23T01:00:08.670Z,-0.30
2023-01-23T01:02:35.463Z,-0.30
2023-01-23T01:05:02.256Z,-0.30
2023-01-23T01:07:28.867Z,-0.50
2023-01-23T01:09:55.767Z,-0.40
2023-01-23T01:12:22.424Z,-0.30
2023-01-23T01:14:49.111Z,-0.30
2023-01-23T01:17:15.826Z,-0.20
2023-01-23T01:19:42.428Z,-0.20
2023-01-23T01:22:09.142Z,-0.20
2023-01-23T01:24:35.815Z,-0.20
2023-01-23T01:27:02.514Z,-0.30
2023-01-23T01:29:29.230Z,-0.30
2023-01-23T01:31:55.964Z,-0.40
2023-01-23T01:34:23.691Z,-0.20
2023-01-23T01:36:51.643Z,-0.10
2023-01-23T01:39:18.406Z,-0.20
2023-01-23T01:41:45.387Z,-0.20
2023-01-23T01:44:20.061Z,-0.10
2023-01-23T01:46:47.204Z,-0.10
2023-01-23T01:49:26.710Z,-0.10
2023-01-23T01:51:56.693Z,-0.10
2023-01-23T01:54:33.222Z,-0.10
2023-01-23T01:57:30.214Z,-0.20
2023-01-23T02:00:18.317Z,-0.20
2023-01-23T02:03:00.908Z,-0.10
2023-01-23T02:05:35.737Z,-0.20
2023-01-23T02:08:18.994Z,-0.20
2023-01-23T02:10:45.906Z,-0.10
2023-01-23T02:13:36.049Z,-0.10
2023-01-23T02:16:11.245Z,-0.10
2023-01-23T02:18:43.923Z,-0.20
2023-01-23T02:21:13.067Z,-0.30
2023-01-23T02:23:54.741Z,-0.30
2023-01-23T02:26:26.085Z,-0.30
2023-01-23T02:28:53.535Z,-0.20
2023-01-23T02:31:20.786Z,-0.20
2023-01-23T02:33:53.623Z,-0.20
2023-01-23T02:36:24.180Z,-0.20
2023-01-23T02:39:11.188Z,-0.20
2023-01-23T02:41:50.314Z,-0.20
2023-01-23T02:44:25.422Z,-0.20
2023-01-23T02:46:53.610Z,-0.10
2023-01-23T02:49:21.927Z,0.00
2023-01-23T02:51:49.855Z,0.00
2023-01-23T02:54:17.321Z,0.10
2023-01-23T02:56:44.068Z,0.10
2023-01-23T02:59:29.650Z,0.00
2023-01-23T03:01:57.317Z,-0.10
2023-01-23T03:04:24.194Z,0.10
2023-01-23T03:06:50.852Z,0.00
2023-01-23T03:09:18.014Z,-0.20
2023-01-23T03:11:45.923Z,-0.30
2023-01-23T03:14:16.537Z,-0.20
2023-01-23T03:16:45.151Z,-0.30
2023-01-23T03:19:11.920Z,-0.10
2023-01-23T03:21:40.503Z,-0.10
2023-01-23T03:24:09.766Z,-0.20
2023-01-23T03:26:39.679Z,-0.20
2023-01-23T03:29:25.496Z,-0.40
2023-01-23T03:31:52.808Z,-0.50
2023-01-23T03:34:22.040Z,-0.40
2023-01-23T03:36:48.721Z,-0.40
2023-01-23T03:39:34.006Z,-0.30
2023-01-23T03:42:00.676Z,-0.30
2023-01-23T03:44:27.359Z,-0.20
2023-01-23T03:46:54.111Z,-0.20
2023-01-23T03:49:20.988Z,-0.30
2023-01-23T03:51:47.861Z,-0.20
2023-01-23T03:54:14.813Z,-0.30
2023-01-23T03:56:42.428Z,-0.20
2023-01-23T03:59:09.731Z,-0.20
2023-01-23T04:01:37.001Z,-0.10
2023-01-23T04:04:04.460Z,-0.30
2023-01-23T04:06:31.096Z,-0.40
2023-01-23T04:08:58.277Z,-0.30
2023-01-23T04:11:26.526Z,-0.40
2023-01-23T04:13:54.499Z,-0.20
2023-01-23T04:16:24.729Z,-0.30
2023-01-23T04:18:51.836Z,-0.40
2023-01-23T04:21:18.695Z,-0.30
2023-01-23T04:23:45.400Z,-0.20
2023-01-23T04:26:12.696Z,-0.30
2023-01-23T04:28:40.056Z,-0.20
2023-01-23T04:31:09.211Z,-0.20
2023-01-23T04:33:36.386Z,-0.10
2023-01-23T04:36:05.534Z,0.00
2023-01-23T04:38:33.500Z,0.00
2023-01-23T04:41:00.504Z,-0.10
2023-01-23T04:43:27.309Z,-0.10
2023-01-23T04:45:55.378Z,-0.20
2023-01-23T04:48:22.888Z,-0.20
2023-01-23T04:50:50.510Z,-0.10
2023-01-23T04:53:17.258Z,0.00
2023-01-23T04:55:46.134Z,0.00
2023-01-23T04:58:12.808Z,0.00
2023-01-23T05:00:39.497Z,0.00
2023-01-23T05:03:06.163Z,-0.20
2023-01-23T05:05:33.464Z,-0.10
2023-01-23T05:08:00.212Z,-0.10
2023-01-23T05:10:27.017Z,-0.10
2023-01-23T05:12:53.926Z,-0.10
2023-01-23T05:15:21.288Z,0.00
2023-01-23T05:17:49.004Z,-0.20
2023-01-23T05:20:16.078Z,-0.20
2023-01-23T05:22:55.278Z,-0.20
2023-01-23T05:25:27.358Z,-0.10
2023-01-23T05:27:54.262Z,-0.30
2023-01-23T05:30:23.010Z,-0.20
2023-01-23T05:32:49.733Z,-0.20
2023-01-23T05:35:16.813Z,-0.20
2023-01-23T05:37:43.574Z,-0.20
2023-01-23T05:40:13.148Z,-0.20
2023-01-23T05:42:39.837Z,-0.20
2023-01-23T05:45:07.341Z,-0.30
2023-01-23T05:47:34.376Z,-0.30
2023-01-23T05:50:01.353Z,-0.20
2023-01-23T05:52:28.180Z,-0.30
2023-01-23T05:54:54.945Z,-0.20
2023-01-23T05:57:21.851Z,-0.20
2023-01-23T05:59:48.543Z,-0.40
2023-01-23T06:02:16.092Z,-0.30
2023-01-23T06:04:42.795Z,-0.40
2023-01-23T06:07:17.190Z,-0.30
2023-01-23T06:09:43.934Z,-0.30
2023-01-23T06:12:11.225Z,-0.20
2023-01-23T06:14:37.934Z,-0.20
2023-01-23T06:17:05.328Z,-0.20
2023-01-23T06:19:32.017Z,-0.30
2023-01-23T06:21:58.772Z,-0.40
2023-01-23T06:24:25.549Z,-0.40
2023-01-23T06:26:52.208Z,-0.30
2023-01-23T06:29:18.823Z,-0.40
2023-01-23T06:31:46.875Z,-0.40
2023-01-23T06:34:14.877Z,-0.30
2023-01-23T06:36:42.204Z,-0.30
2023-01-23T06:39:14.909Z,-0.20
2023-01-23T06:41:42.354Z,-0.20
2023-01-23T06:44:09.278Z,-0.30
2023-01-23T06:46:36.247Z,-0.40
2023-01-23T06:49:06.195Z,-0.40
2023-01-23T06:51:33.594Z,-0.40
2023-01-23T06:54:00.426Z,-0.50
2023-01-23T06:56:27.090Z,-0.40
2023-01-23T06:58:53.792Z,-0.30
2023-01-23T07:01:20.593Z,-0.40
2023-01-23T07:03:47.618Z,-0.40
2023-01-23T07:06:15.282Z,-0.40
2023-01-23T07:08:42.548Z,-0.40
2023-01-23T07:11:09.733Z,-0.30
2023-01-23T07:13:36.396Z,-0.10
2023-01-23T07:16:03.262Z,0.00
2023-01-23T07:18:30.445Z,-0.10
2023-01-23T07:20:57.404Z,-0.30
2023-01-23T07:23:24.258Z,-0.20
2023-01-23T07:25:51.059Z,-0.20
2023-01-23T07:28:17.800Z,-0.30
2023-01-23T07:30:44.516Z,-0.50
2023-01-23T07:33:12.440Z,-0.40
2023-01-23T07:35:40.406Z,-0.40
2023-01-23T07:38:07.060Z,-0.50
2023-01-23T07:40:33.812Z,-0.40
2023-01-23T07:43:00.491Z,-0.50
2023-01-23T07:45:27.274Z,-0.40
2023-01-23T07:47:53.909Z,-0.30
2023-01-23T07:50:20.851Z,-0.40
2023-01-23T07:52:47.937Z,-0.50
2023-01-23T07:55:15.030Z,-0.40
2023-01-23T07:57:42.503Z,-0.30
2023-01-23T08:00:10.836Z,-0.30
2023-01-23T08:02:38.339Z,-0.20
2023-01-23T08:05:05.792Z,-0.40
2023-01-23T08:07:32.835Z,-0.30
2023-01-23T08:09:59.476Z,-0.30
2023-01-23T08:12:26.188Z,-0.50
2023-01-23T08:14:52.811Z,-0.40
2023-01-23T08:17:19.851Z,-0.20
2023-01-23T08:19:46.451Z,-0.40
2023-01-23T08:22:13.098Z,-0.40
2023-01-23T08:24:39.825Z,-0.20
2023-01-23T08:27:07.573Z,-0.20
2023-01-23T08:29:34.233Z,-0.40
2023-01-23T08:32:01.265Z,-0.20
2023-01-23T08:34:27.987Z,-0.30
2023-01-23T08:36:54.633Z,-0.30
2023-01-23T08:39:21.428Z,-0.30
2023-01-23T08:41:48.175Z,-0.30
2023-01-23T08:44:14.860Z,-0.20
2023-01-23T08:46:42.946Z,-0.10
2023-01-23T08:49:11.286Z,0.00
2023-01-23T08:51:38.250Z,-0.10
2023-01-23T08:54:05.969Z,0.20
2023-01-23T08:56:32.625Z,-0.10
2023-01-23T08:58:59.268Z,0.10
2023-01-23T09:01:27.528Z,0.00
2023-01-23T09:03:54.360Z,-0.10
2023-01-23T09:06:22.759Z,0.00
2023-01-23T09:08:49.756Z,-0.20
2023-01-23T09:11:17.355Z,0.10
2023-01-23T09:13:48.478Z,0.20
2023-01-23T09:16:16.105Z,0.30
2023-01-23T09:18:42.890Z,-0.10
2023-01-23T09:21:12.762Z,0.20
2023-01-23T09:23:39.733Z,0.20
2023-01-23T09:26:08.956Z,0.40
2023-01-23T09:28:37.087Z,0.60
2023-01-23T09:31:07.196Z,0.60
2023-01-23T09:33:34.969Z,0.50
2023-01-23T09:36:02.628Z,0.90
2023-01-23T09:38:29.495Z,1.30
2023-01-23T09:40:58.670Z,1.40
2023-01-23T09:43:31.444Z,1.20
2023-01-23T09:46:27.772Z,1.30
2023-01-23T09:49:08.156Z,1.40
2023-01-23T09:51:51.407Z,1.20
2023-01-23T09:54:34.488Z,1.00
2023-01-23T09:57:06.385Z,1.30
2023-01-23T09:59:50.251Z,1.10
2023-01-23T10:02:25.741Z,1.10
2023-01-23T10:04:54.248Z,1.30
2023-01-23T10:07:32.616Z,1.00
2023-01-23T10:10:21.612Z,1.10
2023-01-23T10:13:18.042Z,0.80
2023-01-23T10:16:22.450Z,0.80
2023-01-23T10:19:00.948Z,0.60
2023-01-23T10:21:50.299Z,0.70
2023-01-23T10:24:49.171Z,0.60
2023-01-23T10:27:18.724Z,0.70
2023-01-23T10:30:08.509Z,0.90
2023-01-23T10:33:04.199Z,0.60
2023-01-23T10:35:47.407Z,1.00
2023-01-23T10:38:27.842Z,1.00
2023-01-23T10:41:12.978Z,1.10
2023-01-23T10:43:43.141Z,1.10
2023-01-23T10:46:15.775Z,0.90
2023-01-23T10:49:01.615Z,0.80
2023-01-23T10:51:39.391Z,0.70
2023-01-23T10:54:32.957Z,0.70
2023-01-23T10:57:03.498Z,0.80
2023-01-23T10:59:35.180Z,1.00
2023-01-23T11:02:14.152Z,1.10
2023-01-23T11:04:44.621Z,0.80
2023-01-23T11:07:20.948Z,0.90
2023-01-23T11:09:53.840Z,1.20
2023-01-23T11:12:22.406Z,1.10
2023-01-23T11:14:49.790Z,1.20
2023-01-23T11:17:22.079Z,1.30
2023-01-23T11:19:50.061Z,0.70
2023-01-23T11:22:39.420Z,0.90
2023-01-23T11:25:28.104Z,1.20
2023-01-23T11:28:03.190Z,1.40
2023-01-23T11:30:46.642Z,1.50
2023-01-23T11:33:42.932Z,1.30
2023-01-23T11:36:18.951Z,1.60
2023-01-23T11:38:55.563Z,1.70
2023-01-23T11:41:28.645Z,1.80
2023-01-23T11:43:55.640Z,1.50
2023-01-23T11:46:40.457Z,1.40
2023-01-23T11:49:52.318Z,1.20
2023-01-23T11:52:25.071Z,1.30
2023-01-23T11:55:03.606Z,0.90
2023-01-23T11:57:45.385Z,0.80
2023-01-23T12:00:28.066Z,0.70
2023-01-23T12:02:58.596Z,0.90
2023-01-23T12:05:31.151Z,0.90
2023-01-23T12:08:19.605Z,1.40
2023-01-23T12:11:12.205Z,1.40
2023-01-23T12:13:44.518Z,0.90
2023-01-23T12:16:30.007Z,0.90
2023-01-23T12:19:11.752Z,1.00
2023-01-23T12:22:01.949Z,0.90
2023-01-23T12:24:41.287Z,1.00
2023-01-23T12:27:26.793Z,0.80
2023-01-23T12:30:05.353Z,1.10
2023-01-23T12:32:50.280Z,1.00
2023-01-23T12:35:34.333Z,0.80
2023-01-23T12:38:11.597Z,0.80
2023-01-23T12:40:46.673Z,1.00
2023-01-23T12:43:16.590Z,0.90
2023-01-23T12:45:59.595Z,0.80
2023-01-23T12:48:35.085Z,0.80
2023-01-23T12:51:36.886Z,0.70
2023-01-23T12:54:10.599Z,0.70
2023-01-23T12:56:40.088Z,0.70
2023-01-23T12:59:15.804Z,1.00
2023-01-23T13:02:03.519Z,1.20
2023-01-23T13:04:42.549Z,1.10
2023-01-23T13:07:51.354Z,1.20
2023-01-23T13:11:00.756Z,1.40
2023-01-23T13:13:27.891Z,1.20
2023-01-23T13:16:03.861Z,0.90
2023-01-23T13:18:50.523Z,1.30
2023-01-23T13:21:35.982Z,1.30
2023-01-23T13:25:00.756Z,1.10
2023-01-23T13:27:45.450Z,1.10
2023-01-23T13:30:25.208Z,0.90
2023-01-23T13:33:00.664Z,1.20
2023-01-23T13:35:39.180Z,0.90
2023-01-23T13:38:29.751Z,1.30
2023-01-23T13:41:05.255Z,1.30
2023-01-23T13:44:04.821Z,1.10
2023-01-23T14:21:55.201Z,1.10
2023-01-23T14:24:24.934Z,0.90
2023-01-23T14:27:02.458Z,1.00
2023-01-23T14:29:31.377Z,1.10
2023-01-23T14:31:58.098Z,1.40
2023-01-23T14:34:26.536Z,1.10
2023-01-23T14:37:10.626Z,1.00
2023-01-23T14:39:38.488Z,1.10
2023-01-23T14:42:11.563Z,1.10
2023-01-23T14:44:44.790Z,1.20
2023-01-23T14:47:23.587Z,1.10
2023-01-23T14:49:50.629Z,1.30
2023-01-23T14:52:31.245Z,1.10
2023-01-23T14:55:01.190Z,1.20
2023-01-23T14:57:35.114Z,1.00
2023-01-23T15:00:02.603Z,0.90
2023-01-23T15:02:35.441Z,0.80
2023-01-23T15:05:25.042Z,0.80
2023-01-23T15:08:20.316Z,0.80
2023-01-23T15:10:49.864Z,0.90
2023-01-23T15:13:25.719Z,0.80
2023-01-23T15:16:01.866Z,0.90
2023-01-23T15:18:31.188Z,0.90
2023-01-23T15:21:06.959Z,0.80
2023-01-23T15:23:38.763Z,0.90
2023-01-23T15:26:14.543Z,0.80
2023-01-23T15:28:48.530Z,0.80
2023-01-23T15:31:34.606Z,0.70
2023-01-23T15:34:34.348Z,0.70
2023-01-23T15:37:22.945Z,0.50
2023-01-23T15:40:01.894Z,0.50
2023-01-23T15:42:32.025Z,0.50
2023-01-23T15:45:01.403Z,0.50
2023-01-23T15:47:32.650Z,0.50
2023-01-23T15:50:03.066Z,0.50
2023-01-23T15:52:50.672Z,0.40
2023-01-23T15:55:18.950Z,0.40
2023-01-23T15:57:45.926Z,0.50
2023-01-23T16:00:27.161Z,0.30
2023-01-23T16:02:57.268Z,0.30
2023-01-23T16:05:30.325Z,0.40
2023-01-23T16:08:01.002Z,0.30
2023-01-23T16:10:31.151Z,0.40
2023-01-23T16:12:58.557Z,0.30
2023-01-23T16:15:27.955Z,0.30
2023-01-23T16:17:55.176Z,0.30
2023-01-23T16:20:23.507Z,0.30
2023-01-23T16:22:56.968Z,0.30
2023-01-23T16:25:43.980Z,0.30
2023-01-23T16:28:21.170Z,0.20
2023-01-23T16:30:49.725Z,0.30
2023-01-23T16:33:16.749Z,0.20
2023-01-23T16:35:44.132Z,0.20
2023-01-23T16:38:23.393Z,0.20
2023-01-23T16:40:53.077Z,0.10
2023-01-23T16:43:20.448Z,0.20
2023-01-23T16:45:47.112Z,0.20
2023-01-23T16:48:21.826Z,0.30
2023-01-23T16:50:58.935Z,0.20
2023-01-23T16:53:28.856Z,0.20
2023-01-23T16:55:58.101Z,0.30
2023-01-23T16:58:28.565Z,0.30
2023-01-23T17:01:01.334Z,0.40
2023-01-23T17:03:32.646Z,0.40
2023-01-23T17:05:59.498Z,0.40
2023-01-23T17:08:26.521Z,0.50
2023-01-23T17:10:58.529Z,0.40
2023-01-23T17:13:26.035Z,0.40
2023-01-23T17:15:55.874Z,0.40
2023-01-23T17:18:28.933Z,0.50
2023-01-23T17:20:56.389Z,0.50
2023-01-23T17:23:24.307Z,0.50
2023-01-23T17:26:00.391Z,0.60
2023-01-23T17:28:28.203Z,0.50
2023-01-23T17:30:55.433Z,0.50
2023-01-23T17:33:23.748Z,0.50
2023-01-23T17:35:51.313Z,0.50
2023-01-23T17:38:20.804Z,0.40
2023-01-23T17:40:47.632Z,0.40
2023-01-23T17:43:15.544Z,0.50
2023-01-23T17:45:44.606Z,0.40
2023-01-23T17:48:24.181Z,0.50
2023-01-23T17:50:51.022Z,0.50
2023-01-23T17:53:19.324Z,0.50
2023-01-23T17:55:49.349Z,0.50
2023-01-23T17:58:16.414Z,0.50
2023-01-23T18:00:44.547Z,0.40
2023-01-23T18:03:16.974Z,0.50
2023-01-23T18:05:43.735Z,0.40
2023-01-23T18:08:14.992Z,0.40
2023-01-23T18:10:45.268Z,0.40
2023-01-23T18:13:26.653Z,0.50
2023-01-23T18:16:23.421Z,0.40
2023-01-23T18:19:01.258Z,0.30
2023-01-23T18:21:28.405Z,0.40
2023-01-23T18:23:55.639Z,0.40
2023-01-23T18:26:51.984Z,0.40
2023-01-23T18:29:24.529Z,0.40
2023-01-23T18:32:00.062Z,0.50
2023-01-23T18:34:52.024Z,0.50
2023-01-23T18:37:28.800Z,0.50
2023-01-23T18:40:08.305Z,0.50
2023-01-23T18:43:00.631Z,0.50
2023-01-23T18:45:28.062Z,0.50
2023-01-23T18:47:55.552Z,0.50
2023-01-23T18:50:22.918Z,0.60
2023-01-23T18:53:12.254Z,0.50
2023-01-23T18:56:15.499Z,0.40
2023-01-23T18:59:10.431Z,0.50
2023-01-23T19:01:41.174Z,0.40
2023-01-23T19:04:15.601Z,0.60
2023-01-23T19:06:42.767Z,0.60
2023-01-23T19:09:20.686Z,0.60
2023-01-23T19:12:09.487Z,0.60
2023-01-23T19:14:53.276Z,0.50
2023-01-23T19:17:53.658Z,0.50
2023-01-23T19:20:20.402Z,0.50
2023-01-23T19:23:00.749Z,0.50
2023-01-23T19:25:27.966Z,0.60
2023-01-23T19:27:57.487Z,0.50
2023-01-23T19:30:26.407Z,0.60
2023-01-23T19:32:53.362Z,0.50
2023-01-23T19:35:20.605Z,0.50
2023-01-23T19:37:47.473Z,0.50
2023-01-23T19:40:15.799Z,0.60
2023-01-23T19:42:54.374Z,0.50
2023-01-23T19:45:28.406Z,0.50
2023-01-23T19:47:55.072Z,0.50
2023-01-23T19:50:22.301Z,0.50
2023-01-23T19:52:50.313Z,0.50
2023-01-23T19:55:30.303Z,0.60
2023-01-23T19:57:57.701Z,0.70
2023-01-23T20:00:30.805Z,0.70
2023-01-23T20:02:57.995Z,0.80
2023-01-23T20:05:25.989Z,0.60
2023-01-23T20:07:54.073Z,0.50
2023-01-23T20:10:21.427Z,0.60
2023-01-23T20:12:52.348Z,0.70
2023-01-23T20:15:23.253Z,0.70
2023-01-23T20:17:51.106Z,0.70
2023-01-23T20:20:18.750Z,0.70
2023-01-23T20:22:45.927Z,0.80
2023-01-23T20:25:15.507Z,0.80
2023-01-23T20:27:43.650Z,0.70
2023-01-23T20:30:15.263Z,0.80
2023-01-23T20:32:42.211Z,0.80
2023-01-23T20:35:09.244Z,0.70
2023-01-23T20:37:35.917Z,0.80
2023-01-23T20:40:02.637Z,0.80
2023-01-23T20:42:29.353Z,0.70
2023-01-23T20:44:56.003Z,0.70
2023-01-23T20:47:22.774Z,0.60
2023-01-23T20:49:49.491Z,0.60
2023-01-23T20:52:35.038Z,0.60
2023-01-23T20:55:01.681Z,0.60
2023-01-23T20:57:48.302Z,0.70
2023-01-23T21:00:15.480Z,0.70
2023-01-23T21:02:42.495Z,0.70
2023-01-23T21:05:09.327Z,0.60
2023-01-23T21:07:35.979Z,0.60
2023-01-23T21:10:02.809Z,0.60
2023-01-23T21:12:29.559Z,0.70
2023-01-23T21:14:56.204Z,0.70
2023-01-23T21:17:22.953Z,0.80
2023-01-23T21:19:52.182Z,0.70
2023-01-23T21:22:18.801Z,0.90
2023-01-23T21:24:45.516Z,0.90
2023-01-23T21:27:13.788Z,0.80
2023-01-23T21:29:40.469Z,0.80
2023-01-23T21:32:07.180Z,0.90
2023-01-23T21:34:34.008Z,0.90
2023-01-23T21:37:00.757Z,0.90
2023-01-23T21:39:27.442Z,0.80
2023-01-23T21:41:54.090Z,0.80
2023-01-23T21:44:20.764Z,0.70
2023-01-23T21:46:49.058Z,0.80
2023-01-23T21:49:15.755Z,0.80
2023-01-23T21:51:42.481Z,0.90
2023-01-23T21:54:09.382Z,0.80
2023-01-23T21:56:36.122Z,0.90
2023-01-23T21:59:02.940Z,0.80
2023-01-23T22:01:32.862Z,0.90
2023-01-23T22:04:06.964Z,0.90
2023-01-23T22:06:35.920Z,0.90
2023-01-23T22:09:03.325Z,0.80
2023-01-23T22:11:30.195Z,0.90
2023-01-23T22:13:57.978Z,0.90
2023-01-23T22:16:40.032Z,0.80
2023-01-23T22:19:16.590Z,0.80
2023-01-23T22:21:44.251Z,0.90
2023-01-23T22:24:10.970Z,0.80
2023-01-23T22:26:38.049Z,0.90
2023-01-23T22:29:04.720Z,0.90
2023-01-23T22:31:31.512Z,1.00
2023-01-23T22:33:58.300Z,0.90
2023-01-23T22:36:25.109Z,0.90
2023-01-23T22:51:51.531Z,0.90
2023-01-23T22:54:18.387Z,0.80
2023-01-23T22:56:45.331Z,0.80
2023-01-23T22:59:12.018Z,0.80
2023-01-23T23:01:38.671Z,0.80
2023-01-23T23:04:05.515Z,0.90
2023-01-23T23:06:32.268Z,0.90
2023-01-23T23:08:58.996Z,0.80
2023-01-23T23:11:27.993Z,0.90
2023-01-23T23:13:56.239Z,0.90
2023-01-23T23:16:31.483Z,1.00
2023-01-23T23:19:00.913Z,1.00
2023-01-23T23:21:31.624Z,1.00
2023-01-23T23:23:59.392Z,0.90
2023-01-23T23:26:27.889Z,1.00
2023-01-23T23:28:55.367Z,1.00
2023-01-23T23:31:22.356Z,1.10
2023-01-23T23:33:49.524Z,1.00
2023-01-23T23:36:16.366Z,1.00
2023-01-23T23:38:43.031Z,0.80
2023-01-23T23:41:13.670Z,0.90
2023-01-23T23:43:40.536Z,1.00
2023-01-23T23:46:08.524Z,1.00
2023-01-23T23:48:36.957Z,1.00
2023-01-23T23:51:06.506Z,0.90
2023-01-23T23:53:33.752Z,0.80
2023-01-23T23:56:00.430Z,0.70
2023-01-23T23:58:27.460Z,0.80
